Time;durP1;ratioP1;P1;durP2;ratioP2;P2;SDS_P1;SDS_P2;PMS_P1;PMS_P2;Temp;Humidity;BMP_temperature;BMP_pressure;BME280_temperature;BME280_humidity;BME280_pressure;Samples;Min_cycle;Max_cycle;Signal;HPM_P1;HPM_P2
2023/02/28 10:11:46;;;;;;;16.80;15.50;;;2.50;99.90;;;;;;5066878;27;20391;-86
2023/02/28 10:14:15;;;;;;;16.40;15.20;;;3.90;97.80;;;;;;5066986;28;20532;-86
2023/02/28 10:16:51;;;;;;;16.80;15.50;;;4.20;97.20;;;;;;5067020;28;21076;-86
2023/02/28 10:19:22;;;;;;;16.93;15.50;;;4.40;96.70;;;;;;5066554;28;20490;-86
2023/02/28 10:21:56;;;;;;;17.17;15.53;;;4.20;95.80;;;;;;5066742;28;20447;-87
2023/02/28 10:24:29;;;;;;;18.30;16.47;;;4.10;96.00;;;;;;5066808;28;20509;-88
2023/02/28 10:27:01;;;;;;;16.03;14.93;;;4.10;95.90;;;;;;5066720;28;20564;-88
2023/02/28 10:29:32;;;;;;;15.27;14.17;;;4.10;95.40;;;;;;5067013;28;20883;-87
2023/02/28 10:32:02;;;;;;;15.93;14.73;;;4.00;96.10;;;;;;5066720;28;20449;-87
2023/02/28 10:34:29;;;;;;;15.43;14.13;;;4.00;96.40;;;;;;5066676;28;20458;-86
2023/02/28 10:37:06;;;;;;;17.30;16.00;;;4.20;96.10;;;;;;5066457;28;20501;-86
2023/02/28 10:39:41;;;;;;;15.40;14.27;;;4.40;95.50;;;;;;5066107;28;20560;-87
2023/02/28 10:42:25;;;;;;;17.37;15.87;;;4.60;95.40;;;;;;5066353;28;20454;-86
2023/02/28 10:45:10;;;;;;;17.00;15.70;;;4.60;94.90;;;;;;5066113;28;20483;-86
2023/02/28 10:47:49;;;;;;;18.00;16.30;;;4.70;94.90;;;;;;5066026;28;20454;-86
2023/02/28 10:50:29;;;;;;;18.27;16.87;;;4.60;94.60;;;;;;5066087;28;20879;-86
2023/02/28 10:53:05;;;;;;;17.10;15.70;;;4.70;94.20;;;;;;5066049;28;20823;-85
2023/02/28 10:55:32;;;;;;;17.03;15.63;;;4.80;93.80;;;;;;5066060;28;20462;-86
2023/02/28 10:58:00;;;;;;;15.47;14.23;;;4.70;93.80;;;;;;5066005;28;20456;-86
2023/02/28 11:00:34;;;;;;;17.53;16.13;;;4.40;94.30;;;;;;5065864;28;20487;-86
2023/02/28 11:03:00;;;;;;;19.70;18.20;;;4.50;94.30;;;;;;5065662;28;20505;-86
2023/02/28 11:05:30;;;;;;;16.70;15.50;;;4.60;94.50;;;;;;5065955;28;21076;-85
2023/02/28 11:08:03;;;;;;;17.63;16.43;;;4.60;94.20;;;;;;5065740;28;20529;-86
2023/02/28 11:10:34;;;;;;;16.47;15.37;;;5.20;93.30;;;;;;5065048;28;20815;-86
2023/02/28 11:13:03;;;;;;;17.60;16.40;;;6.00;92.50;;;;;;5052257;28;20455;-85
2023/02/28 11:15:32;;;;;;;16.97;15.40;;;7.10;89.50;;;;;;5052421;28;20447;-85
2023/02/28 11:18:01;;;;;;;16.90;15.60;;;7.50;85.30;;;;;;5052280;28;20447;-84
2023/02/28 11:20:31;;;;;;;18.23;16.73;;;7.40;84.00;;;;;;5053093;28;20455;-85
2023/02/28 11:22:59;;;;;;;18.60;17.20;;;7.70;82.70;;;;;;5052493;28;20506;-87
2023/02/28 11:25:29;;;;;;;18.20;16.80;;;8.60;80.70;;;;;;5052642;28;20452;-88
2023/02/28 11:28:01;;;;;;;17.70;16.40;;;8.70;78.60;;;;;;5052238;28;20452;-88
2023/02/28 11:30:35;;;;;;;18.50;17.00;;;8.80;77.40;;;;;;5052515;28;20852;-86
2023/02/28 11:33:19;;;;;;;15.97;14.77;;;8.50;75.50;;;;;;5052068;28;20469;-84
2023/02/28 11:35:46;;;;;;;16.00;15.00;;;8.40;76.10;;;;;;5052296;28;20444;-84
2023/02/28 11:38:13;;;;;;;17.93;16.57;;;7.90;76.70;;;;;;5052125;28;20451;-85
2023/02/28 11:40:47;;;;;;;17.73;16.30;;;7.60;78.30;;;;;;5051697;28;20857;-84
2023/02/28 11:43:25;;;;;;;17.23;16.13;;;8.00;77.50;;;;;;5052025;28;20509;-85
2023/02/28 11:46:11;;;;;;;17.90;16.70;;;8.00;78.40;;;;;;5051660;28;20830;-85
2023/02/28 11:48:48;;;;;;;16.20;15.03;;;8.20;76.10;;;;;;5051629;28;20527;-85
2023/02/28 11:51:21;;;;;;;17.80;16.10;;;7.20;77.30;;;;;;5051764;28;20533;-85
2023/02/28 11:54:14;;;;;;;17.40;15.97;;;6.90;80.60;;;;;;5051541;28;20452;-86
2023/02/28 11:56:44;;;;;;;18.90;17.50;;;8.20;77.60;;;;;;5051890;28;20501;-86
2023/02/28 11:59:33;;;;;;;16.70;15.50;;;8.50;76.90;;;;;;5051790;28;20452;-84
2023/02/28 12:02:23;;;;;;;17.10;16.00;;;8.60;76.90;;;;;;5051949;28;20459;-85
2023/02/28 12:05:02;;;;;;;16.60;15.60;;;9.90;73.10;;;;;;5051359;28;20452;-85
2023/02/28 12:07:38;;;;;;;20.13;18.83;;;11.00;67.40;;;;;;5051344;28;20475;-84
2023/02/28 12:10:18;;;;;;;18.90;17.60;;;11.10;65.80;;;;;;5051140;28;20746;-85
2023/02/28 12:12:56;;;;;;;18.67;17.47;;;11.30;63.30;;;;;;5051252;28;20455;-84
2023/02/28 12:15:57;;;;;;;18.00;16.63;;;11.20;63.90;;;;;;5051130;28;20459;-84
2023/02/28 12:18:43;;;;;;;17.27;16.00;;;10.70;62.60;;;;;;5051229;28;20459;-84
2023/02/28 12:21:18;;;;;;;18.37;17.17;;;9.40;65.60;;;;;;5051235;28;20444;-85
2023/02/28 12:23:59;;;;;;;18.00;16.73;;;8.70;68.90;;;;;;5050282;28;20451;-84
2023/02/28 12:26:37;;;;;;;18.60;17.27;;;9.20;68.20;;;;;;5051211;28;20842;-83
2023/02/28 12:29:13;;;;;;;16.83;15.60;;;9.10;69.20;;;;;;5051003;28;21168;-84
2023/02/28 12:31:44;;;;;;;17.73;16.37;;;8.80;69.00;;;;;;5050920;28;20475;-83
2023/02/28 12:34:16;;;;;;;17.23;16.13;;;7.90;71.70;;;;;;5051062;28;20455;-84
2023/02/28 12:36:46;;;;;;;17.50;16.40;;;8.20;74.50;;;;;;5050918;28;20505;-83
2023/02/28 12:39:19;;;;;;;17.63;16.23;;;9.00;70.60;;;;;;5050754;28;20451;-82
2023/02/28 12:41:49;;;;;;;17.57;16.37;;;10.00;66.10;;;;;;5050541;28;20509;-83
2023/02/28 12:44:20;;;;;;;18.60;17.30;;;10.90;64.30;;;;;;5050462;28;20534;-82
2023/02/28 12:46:51;;;;;;;16.50;15.30;;;10.80;61.80;;;;;;5050770;28;20521;-82
2023/02/28 12:49:25;;;;;;;17.37;16.00;;;10.40;63.30;;;;;;5050409;28;20448;-82
2023/02/28 12:51:52;;;;;;;16.90;15.90;;;10.40;63.40;;;;;;5050346;28;20488;-83
2023/02/28 12:54:25;;;;;;;17.27;16.17;;;10.80;63.30;;;;;;5050072;28;20448;-82
2023/02/28 12:57:03;;;;;;;16.13;15.13;;;10.60;62.40;;;;;;5050411;28;20444;-82
2023/02/28 12:59:37;;;;;;;17.30;16.13;;;10.30;64.80;;;;;;5050551;28;20452;-83
2023/02/28 13:02:49;;;;;;;18.20;16.87;;;10.90;63.50;;;;;;5050449;28;20717;-83
2023/02/28 13:06:06;;;;;;;18.77;17.43;;;10.50;62.50;;;;;;5050156;28;20463;-83
2023/02/28 13:09:09;;;;;;;15.47;14.47;;;9.80;65.90;;;;;;5040515;28;20463;-83
2023/02/28 13:11:41;;;;;;;17.67;16.47;;;10.00;64.10;;;;;;5049628;28;20585;-82
2023/02/28 13:14:21;;;;;;;18.00;16.80;;;10.00;64.80;;;;;;5050251;28;20456;-83
2023/02/28 13:16:55;;;;;;;18.57;17.07;;;10.20;63.60;;;;;;5049666;28;20459;-82
2023/02/28 13:19:24;;;;;;;18.03;16.63;;;10.90;62.30;;;;;;5049686;28;20454;-83
2023/02/28 13:21:53;;;;;;;19.70;18.30;;;10.50;63.50;;;;;;5049231;28;21173;-82
2023/02/28 13:24:41;;;;;;;18.80;17.43;;;10.60;63.20;;;;;;5049056;28;20448;-83
2023/02/28 13:27:25;;;;;;;17.80;16.70;;;11.10;62.60;;;;;;5048424;28;20459;-83
2023/02/28 13:29:53;;;;;;;17.30;15.90;;;11.40;60.50;;;;;;5048293;28;20535;-82
2023/02/28 13:32:38;;;;;;;19.30;17.90;;;10.80;61.10;;;;;;5048407;28;20987;-82
2023/02/28 13:35:35;;;;;;;18.40;17.30;;;10.90;62.40;;;;;;5047880;28;21227;-83
2023/02/28 13:38:34;;;;;;;18.23;16.67;;;11.20;61.20;;;;;;5048533;28;20935;-82
2023/02/28 13:41:49;;;;;;;16.70;15.60;;;10.30;61.80;;;;;;5048489;28;20447;-82
2023/02/28 13:44:19;;;;;;;19.77;18.23;;;9.70;64.60;;;;;;5048528;28;20452;-81
2023/02/28 13:47:24;;;;;;;17.30;15.90;;;8.80;67.60;;;;;;5048459;28;20440;-81
2023/02/28 13:49:52;;;;;;;18.10;16.90;;;7.80;69.80;;;;;;5026084;28;20561;-82
2023/02/28 13:52:22;;;;;;;17.50;16.00;;;7.40;72.60;;;;;;5025695;28;20591;-82
2023/02/28 13:55:25;;;;;;;17.33;16.23;;;7.20;72.50;;;;;;5037229;28;20714;-82
2023/02/28 13:58:09;;;;;;;16.80;15.43;;;7.10;73.70;;;;;;5046970;28;20463;-81
2023/02/28 14:00:59;;;;;;;16.00;14.83;;;7.10;73.90;;;;;;5048381;28;20458;-84
2023/02/28 14:03:42;;;;;;;17.10;15.80;;;7.10;74.10;;;;;;5048672;28;20440;-83
2023/02/28 14:06:16;;;;;;;17.40;16.03;;;7.10;74.50;;;;;;5048298;28;21016;-82
2023/02/28 14:08:52;;;;;;;17.23;15.70;;;6.80;74.10;;;;;;5048313;28;20518;-82
2023/02/28 14:11:31;;;;;;;17.00;15.87;;;6.80;76.50;;;;;;5047698;28;20560;-82
2023/02/28 14:13:58;;;;;;;18.73;17.50;;;6.90;76.00;;;;;;5048549;28;20462;-83
2023/02/28 14:16:26;;;;;;;17.77;16.50;;;7.10;76.10;;;;;;5048566;28;20452;-82
2023/02/28 14:18:58;;;;;;;17.50;16.20;;;7.30;75.30;;;;;;5048343;28;20551;-83
2023/02/28 14:21:28;;;;;;;16.87;15.67;;;7.30;74.60;;;;;;5048375;28;20455;-83
2023/02/28 14:24:24;;;;;;;16.63;15.30;;;7.30;75.10;;;;;;5048297;28;20448;-82
2023/02/28 14:27:12;;;;;;;18.30;17.00;;;7.00;75.40;;;;;;5048189;28;20746;-83
2023/02/28 14:30:09;;;;;;;16.60;15.40;;;7.00;75.30;;;;;;5048321;28;20985;-83
2023/02/28 14:32:45;;;;;;;16.63;15.17;;;6.90;76.20;;;;;;5047977;28;20444;-83
2023/02/28 14:35:23;;;;;;;17.67;16.27;;;7.00;76.90;;;;;;5048145;28;20456;-82
2023/02/28 14:37:50;;;;;;;16.87;15.63;;;7.10;77.10;;;;;;5047628;28;20448;-81
2023/02/28 14:40:19;;;;;;;17.00;15.90;;;7.10;75.80;;;;;;5047722;28;20823;-82
2023/02/28 14:42:55;;;;;;;18.20;16.43;;;7.00;77.70;;;;;;5047903;28;20482;-82
2023/02/28 14:45:23;;;;;;;19.33;17.83;;;7.00;76.90;;;;;;5048030;28;20538;-82
2023/02/28 14:47:52;;;;;;;18.47;16.83;;;6.90;76.60;;;;;;5051266;28;20454;-82
2023/02/28 14:50:20;;;;;;;17.87;16.57;;;6.80;77.10;;;;;;5051555;28;20474;-81
2023/02/28 14:52:47;;;;;;;16.17;14.97;;;6.80;77.00;;;;;;5051511;28;20455;-81
2023/02/28 14:55:18;;;;;;;19.20;16.13;;;6.80;77.70;;;;;;5051492;28;20501;-81
2023/02/28 14:57:54;;;;;;;18.93;17.27;;;6.90;77.50;;;;;;5051692;28;20448;-81
2023/02/28 15:00:25;;;;;;;17.10;15.80;;;6.90;77.10;;;;;;5051462;28;20500;-83
2023/02/28 15:02:52;;;;;;;15.73;14.63;;;6.90;77.40;;;;;;5051744;28;20502;-84
2023/02/28 15:05:31;;;;;;;16.83;15.67;;;6.80;78.60;;;;;;5049784;28;20448;-83
2023/02/28 15:08:07;;;;;;;17.70;16.40;;;6.90;77.30;;;;;;5049654;28;20464;-84
2023/02/28 15:10:35;;;;;;;16.60;15.20;;;6.80;77.50;;;;;;5051085;28;20511;-84
2023/02/28 15:13:06;;;;;;;16.67;15.37;;;6.70;77.90;;;;;;5051071;28;20454;-83
2023/02/28 15:15:44;;;;;;;15.10;13.90;;;6.70;78.50;;;;;;5051728;28;20886;-84
2023/02/28 15:18:19;;;;;;;17.40;16.00;;;6.70;78.60;;;;;;5051484;28;20931;-82
2023/02/28 15:20:47;;;;;;;16.13;15.03;;;6.50;78.80;;;;;;5050798;28;20558;-82
2023/02/28 15:23:15;;;;;;;17.30;16.10;;;6.50;79.00;;;;;;5050841;28;20792;-82
2023/02/28 15:25:42;;;;;;;19.57;18.10;;;6.60;79.70;;;;;;5050952;28;20444;-82
2023/02/28 15:28:16;;;;;;;17.73;16.43;;;6.50;79.10;;;;;;5050918;28;20875;-82
2023/02/28 15:30:56;;;;;;;18.00;16.60;;;6.60;80.10;;;;;;5050925;28;20509;-82
2023/02/28 15:33:25;;;;;;;17.47;16.27;;;6.60;79.40;;;;;;5050699;28;21004;-82
2023/02/28 15:35:52;;;;;;;17.83;16.20;;;6.60;80.30;;;;;;5050952;28;20543;-82
2023/02/28 15:38:23;;;;;;;18.07;16.60;;;6.60;80.30;;;;;;5051224;28;20978;-81
2023/02/28 15:40:56;;;;;;;19.53;18.23;;;6.60;80.00;;;;;;5051619;28;20498;-82
2023/02/28 15:43:29;;;;;;;16.10;15.00;;;6.60;80.70;;;;;;5051056;28;20447;-81
2023/02/28 15:45:59;;;;;;;17.57;16.40;;;6.50;80.30;;;;;;5050900;28;20454;-81
2023/02/28 15:48:29;;;;;;;18.33;17.10;;;6.40;81.50;;;;;;5050807;28;20510;-82
2023/02/28 15:50:59;;;;;;;17.43;16.20;;;6.40;81.60;;;;;;5050502;28;20577;-81
2023/02/28 15:53:29;;;;;;;17.93;16.47;;;6.40;81.70;;;;;;5050319;28;20990;-81
2023/02/28 15:56:03;;;;;;;18.97;17.67;;;6.30;82.10;;;;;;5051350;28;20460;-83
2023/02/28 15:58:32;;;;;;;17.23;15.93;;;6.20;82.40;;;;;;5050774;28;20448;-83
2023/02/28 16:01:21;;;;;;;17.90;16.60;;;6.20;83.00;;;;;;5050980;28;20445;-82
2023/02/28 16:03:51;;;;;;;18.70;17.40;;;6.20;83.30;;;;;;5047301;28;20542;-83
2023/02/28 16:06:33;;;;;;;17.57;16.47;;;6.10;83.70;;;;;;5050333;28;20470;-82
2023/02/28 16:09:00;;;;;;;17.40;16.20;;;6.10;84.20;;;;;;5050607;28;20459;-83
2023/02/28 16:11:27;;;;;;;20.00;18.50;;;6.10;84.40;;;;;;5050418;28;20537;-82
2023/02/28 16:13:55;;;;;;;18.03;16.67;;;6.00;84.90;;;;;;5050234;28;20447;-82
2023/02/28 16:16:25;;;;;;;18.00;16.60;;;6.00;85.30;;;;;;5050061;28;20457;-82
2023/02/28 16:18:52;;;;;;;17.70;16.40;;;5.90;85.50;;;;;;5050166;28;21025;-83
2023/02/28 16:21:19;;;;;;;19.30;17.57;;;5.90;86.20;;;;;;5050156;28;21298;-83
2023/02/28 16:23:45;;;;;;;17.30;16.10;;;5.90;87.00;;;;;;5049957;28;20957;-82
2023/02/28 16:26:20;;;;;;;18.50;17.10;;;5.80;85.80;;;;;;5050151;28;20452;-82
2023/02/28 16:28:47;;;;;;;19.07;17.43;;;5.70;86.70;;;;;;5050046;28;20880;-82
2023/02/28 16:31:16;;;;;;;17.33;15.87;;;5.70;86.90;;;;;;5050016;28;20518;-82
2023/02/28 16:33:44;;;;;;;18.77;17.27;;;5.60;86.80;;;;;;5050203;28;20551;-82
2023/02/28 16:36:14;;;;;;;20.33;18.63;;;5.60;87.50;;;;;;5049960;28;20546;-82
2023/02/28 16:38:40;;;;;;;19.33;17.57;;;5.50;88.00;;;;;;5049957;28;20510;-82
2023/02/28 16:41:07;;;;;;;26.80;16.10;;;5.40;89.10;;;;;;5049739;28;21002;-82
2023/02/28 16:43:34;;;;;;;18.37;16.97;;;5.30;89.60;;;;;;5049909;28;20464;-81
2023/02/28 16:46:01;;;;;;;17.57;16.20;;;5.30;89.60;;;;;;5051585;28;20459;-82
2023/02/28 16:48:30;;;;;;;18.57;17.10;;;5.20;90.00;;;;;;5050853;28;20514;-81
2023/02/28 16:50:57;;;;;;;17.43;16.03;;;5.20;90.30;;;;;;5050562;28;20543;-81
2023/02/28 16:53:23;;;;;;;18.03;16.67;;;5.10;90.60;;;;;;5050741;28;20516;-82
2023/02/28 16:55:50;;;;;;;16.93;15.53;;;5.10;90.70;;;;;;5049819;28;20560;-82
2023/02/28 16:58:19;;;;;;;18.40;16.90;;;5.00;91.00;;;;;;5050696;28;20857;-80
2023/02/28 17:00:45;;;;;;;17.53;16.03;;;5.00;91.10;;;;;;5052391;28;20452;-80
2023/02/28 17:03:23;;;;;;;18.80;17.30;;;4.90;91.20;;;;;;5050120;28;20514;-80
2023/02/28 17:05:51;;;;;;;18.03;16.63;;;4.90;91.50;;;;;;5049395;28;20452;-80
2023/02/28 17:08:18;;;;;;;18.00;16.27;;;4.80;91.80;;;;;;5049064;28;20558;-80
2023/02/28 17:10:45;;;;;;;18.10;16.60;;;4.80;91.90;;;;;;5048909;28;20480;-80
2023/02/28 17:13:12;;;;;;;18.50;17.03;;;4.70;92.20;;;;;;5049575;28;20491;-79
2023/02/28 17:15:40;;;;;;;18.70;17.10;;;4.70;92.40;;;;;;5049280;28;20460;-80
2023/02/28 17:18:08;;;;;;;18.13;16.73;;;4.60;92.60;;;;;;5049236;28;20456;-80
2023/02/28 17:20:35;;;;;;;18.20;16.80;;;4.60;92.60;;;;;;5049099;28;20639;-81
2023/02/28 17:23:03;;;;;;;19.17;17.50;;;4.60;92.80;;;;;;5049190;28;20502;-80
2023/02/28 17:25:30;;;;;;;17.30;15.87;;;4.50;93.00;;;;;;5049259;28;20452;-80
2023/02/28 17:27:57;;;;;;;17.07;15.73;;;4.50;93.10;;;;;;5049372;28;20969;-81
2023/02/28 17:30:26;;;;;;;17.50;16.10;;;4.50;93.10;;;;;;5048996;28;20447;-81
2023/02/28 17:32:53;;;;;;;16.30;14.80;;;4.50;93.10;;;;;;5048920;28;20510;-80
2023/02/28 17:35:20;;;;;;;17.70;16.00;;;4.50;93.00;;;;;;5049040;28;20444;-80
2023/02/28 17:37:47;;;;;;;16.17;15.03;;;4.40;93.10;;;;;;5048747;28;20513;-80
2023/02/28 17:40:17;;;;;;;17.10;15.73;;;4.50;93.50;;;;;;5049013;28;20521;-80
2023/02/28 17:42:44;;;;;;;19.23;17.63;;;4.40;93.40;;;;;;5048851;28;20479;-80
2023/02/28 17:45:11;;;;;;;18.03;16.63;;;4.40;93.30;;;;;;5048937;28;20869;-80
2023/02/28 17:47:38;;;;;;;19.50;17.43;;;4.40;93.30;;;;;;5048823;28;20823;-80
2023/02/28 17:50:06;;;;;;;17.70;16.30;;;4.30;93.60;;;;;;5048626;28;20462;-80
2023/02/28 17:52:36;;;;;;;17.80;16.40;;;4.20;93.70;;;;;;5048850;28;20488;-80
2023/02/28 17:55:03;;;;;;;17.97;16.40;;;4.20;93.90;;;;;;5048864;28;20965;-80
2023/02/28 17:57:31;;;;;;;16.90;15.70;;;4.20;94.00;;;;;;5049110;28;20454;-80
